Time;durP1;ratioP1;P1;durP2;ratioP2;P2;SDS_P1;SDS_P2;PMS_P1;PMS_P2;Temp;Humidity;BMP_temperature;BMP_pressure;BME280_temperature;BME280_humidity;BME280_pressure;Samples;Min_cycle;Max_cycle;Signal;HPM_P1;HPM_P2
2023/05/15 03:51:55;;;;;;;1.65;1.65;;;7.30;99.90;;;;;;5925139;23;20177;-71
2023/05/15 03:54:23;;;;;;;1.73;1.73;;;7.30;99.90;;;;;;4976386;28;20223;-71
2023/05/15 03:56:50;;;;;;;1.55;1.50;;;7.30;99.90;;;;;;4976350;28;20211;-69
2023/05/15 03:59:16;;;;;;;1.63;1.63;;;7.30;99.90;;;;;;4976349;28;20319;-69
2023/05/15 04:01:43;;;;;;;2.40;2.30;;;7.40;99.90;;;;;;4976174;28;20223;-69
2023/05/15 04:04:10;;;;;;;2.20;2.10;;;7.40;99.90;;;;;;4976376;28;20203;-69
2023/05/15 04:06:37;;;;;;;1.95;1.70;;;7.40;99.90;;;;;;4976701;28;20207;-70
2023/05/15 04:09:03;;;;;;;1.77;1.77;;;7.40;99.90;;;;;;4975929;28;20671;-70
2023/05/15 04:11:33;;;;;;;1.90;1.90;;;7.40;99.90;;;;;;4976243;28;20223;-70
2023/05/15 04:14:00;;;;;;;1.92;1.90;;;7.40;99.90;;;;;;4975988;28;20220;-68
2023/05/15 04:16:26;;;;;;;2.03;1.92;;;7.40;99.90;;;;;;4975927;28;20203;-70
2023/05/15 04:18:53;;;;;;;1.67;1.67;;;7.40;99.90;;;;;;4975443;28;20269;-70
2023/05/15 04:21:20;;;;;;;1.90;1.90;;;7.50;99.90;;;;;;4975834;28;20589;-73
2023/05/15 04:23:46;;;;;;;2.15;2.05;;;7.50;99.90;;;;;;4976019;28;20207;-72
2023/05/15 04:26:13;;;;;;;2.00;1.90;;;7.50;99.90;;;;;;4975933;28;20203;-72
2023/05/15 04:28:41;;;;;;;1.98;1.98;;;7.50;99.90;;;;;;4975874;28;20203;-72
2023/05/15 04:31:08;;;;;;;3.55;3.35;;;7.60;99.90;;;;;;4975388;28;20703;-72
2023/05/15 04:33:35;;;;;;;3.42;3.22;;;7.60;99.90;;;;;;4975634;28;20270;-72
2023/05/15 04:36:02;;;;;;;3.13;2.92;;;7.60;99.90;;;;;;4975678;28;20207;-71
2023/05/15 04:38:29;;;;;;;3.25;2.95;;;7.60;99.90;;;;;;4975547;28;20234;-69
2023/05/15 04:40:55;;;;;;;2.58;2.47;;;7.50;99.90;;;;;;4975430;28;20261;-67
2023/05/15 04:43:22;;;;;;;2.42;2.33;;;7.60;99.90;;;;;;4975394;28;20199;-67
2023/05/15 04:45:50;;;;;;;2.90;2.70;;;7.60;99.90;;;;;;4975084;28;20214;-66
2023/05/15 04:48:18;;;;;;;4.57;3.03;;;7.70;99.90;;;;;;4975413;28;20231;-67
2023/05/15 04:50:44;;;;;;;3.22;3.03;;;7.70;99.90;;;;;;4975261;28;20199;-70
2023/05/15 04:53:11;;;;;;;3.13;3.00;;;7.70;99.90;;;;;;4974916;28;20583;-71
2023/05/15 04:55:38;;;;;;;3.25;3.05;;;7.70;99.90;;;;;;4974892;28;20219;-71
2023/05/15 04:58:04;;;;;;;2.72;2.63;;;7.60;99.90;;;;;;4975223;28;20207;-70
2023/05/15 05:00:31;;;;;;;2.85;2.70;;;7.70;99.90;;;;;;4975112;28;20203;-70
2023/05/15 05:02:59;;;;;;;3.35;3.15;;;7.60;99.90;;;;;;4975004;28;20220;-70
2023/05/15 05:05:26;;;;;;;3.25;3.13;;;7.70;99.90;;;;;;4974997;28;20199;-70
2023/05/15 05:07:52;;;;;;;2.45;2.35;;;7.70;99.90;;;;;;4974928;28;20207;-70
2023/05/15 05:10:20;;;;;;;2.75;2.65;;;7.80;99.90;;;;;;4974870;28;20693;-69
2023/05/15 09:16:11;;;;;;;1.55;1.55;;;15.50;99.90;;;;;;5036354;23;20289;-73
2023/05/15 09:18:40;;;;;;;1.63;1.63;;;15.70;99.90;;;;;;4974526;28;20281;-73
2023/05/15 09:21:23;;;;;;;1.50;1.50;;;16.10;99.90;;;;;;4974721;28;20203;-73
2023/05/15 09:23:49;;;;;;;1.58;1.58;;;16.40;99.90;;;;;;4974749;28;20262;-73
2023/05/15 09:26:16;;;;;;;1.70;1.60;;;16.70;99.90;;;;;;4974727;28;20222;-73
2023/05/15 09:28:43;;;;;;;1.50;1.50;;;17.00;99.90;;;;;;4974536;28;20543;-73
2023/05/15 09:31:11;;;;;;;1.30;1.30;;;17.30;99.90;;;;;;4974378;28;20210;-73
2023/05/15 09:33:41;;;;;;;1.30;1.30;;;17.80;99.90;;;;;;4975189;28;20223;-73
2023/05/15 09:36:08;;;;;;;1.40;1.40;;;18.20;99.90;;;;;;4974265;28;20725;-73
2023/05/15 09:38:39;;;;;;;1.48;1.48;;;18.40;99.90;;;;;;4974641;28;20210;-72
2023/05/15 09:41:08;;;;;;;1.75;1.65;;;18.70;99.90;;;;;;4974725;28;20191;-72
2023/05/15 09:43:36;;;;;;;2.00;1.90;;;18.80;99.90;;;;;;4975022;28;20642;-71
2023/05/15 09:46:03;;;;;;;1.45;1.45;;;18.60;99.90;;;;;;4974648;28;20219;-71
2023/05/15 09:48:32;;;;;;;1.23;1.23;;;18.60;99.90;;;;;;4974401;28;20565;-71
2023/05/15 09:51:00;;;;;;;1.42;1.42;;;18.70;99.90;;;;;;4974546;28;20210;-72
2023/05/15 09:53:28;;;;;;;1.23;1.20;;;18.50;99.90;;;;;;4974309;28;20203;-72
2023/05/15 09:55:55;;;;;;;1.08;1.08;;;18.50;99.90;;;;;;4974410;28;20223;-72
2023/05/15 09:58:22;;;;;;;1.10;1.10;;;18.60;99.90;;;;;;4974175;28;20689;-72
2023/05/15 10:00:49;;;;;;;1.50;1.50;;;18.70;99.90;;;;;;4974571;28;20613;-72
2023/05/15 10:03:15;;;;;;;1.42;1.33;;;18.70;99.90;;;;;;4974450;28;20214;-71
2023/05/15 10:05:43;;;;;;;1.35;1.35;;;18.30;99.90;;;;;;4975006;28;20219;-71
2023/05/15 10:08:11;;;;;;;1.42;1.42;;;18.00;99.90;;;;;;4978710;28;20573;-72
2023/05/15 10:10:39;;;;;;;1.60;1.50;;;17.90;99.90;;;;;;4980135;28;20202;-71
2023/05/15 10:13:08;;;;;;;1.85;1.80;;;17.90;99.90;;;;;;4977798;28;20211;-72
2023/05/15 10:15:37;;;;;;;1.98;1.88;;;17.90;99.90;;;;;;4978897;28;20242;-72
2023/05/15 10:18:04;;;;;;;1.80;1.80;;;17.90;99.90;;;;;;4980557;28;20293;-71
2023/05/15 10:20:34;;;;;;;1.63;1.63;;;17.80;99.90;;;;;;4981943;28;20203;-70
2023/05/15 10:23:04;;;;;;;1.63;1.52;;;17.90;99.90;;;;;;4981858;28;20213;-73
2023/05/15 10:25:38;;;;;;;3.30;1.58;;;18.10;99.90;;;;;;4981898;28;20262;-72
2023/05/15 10:28:09;;;;;;;1.60;1.50;;;18.40;99.90;;;;;;4978736;28;20242;-72
2023/05/15 10:30:36;;;;;;;1.50;1.50;;;18.50;99.90;;;;;;4980610;28;20627;-72
2023/05/15 10:33:05;;;;;;;1.40;1.30;;;18.50;99.90;;;;;;4981438;28;20682;-72
2023/05/15 10:35:33;;;;;;;1.35;1.35;;;18.50;99.90;;;;;;4980832;28;20223;-72
2023/05/15 10:38:04;;;;;;;1.50;1.50;;;18.50;99.90;;;;;;4981528;28;20298;-73
2023/05/15 10:40:33;;;;;;;1.65;1.65;;;18.40;99.90;;;;;;4980757;28;20659;-73
2023/05/15 10:43:00;;;;;;;1.83;1.83;;;18.40;99.90;;;;;;4980715;28;20199;-74
2023/05/15 10:45:28;;;;;;;2.15;2.05;;;18.50;99.90;;;;;;4979468;28;20701;-73
2023/05/15 10:47:56;;;;;;;1.80;1.70;;;18.40;99.90;;;;;;4977399;28;20676;-73
2023/05/15 10:50:22;;;;;;;1.70;1.70;;;18.10;99.90;;;;;;4977398;28;20626;-73
2023/05/15 10:52:51;;;;;;;2.28;2.05;;;18.00;99.90;;;;;;4977557;28;20328;-73
2023/05/15 10:55:20;;;;;;;2.83;2.25;;;17.90;99.90;;;;;;4977407;28;20313;-73
2023/05/15 10:57:47;;;;;;;1.92;1.70;;;17.40;99.90;;;;;;4979782;28;20203;-73
2023/05/15 11:00:27;;;;;;;2.63;1.33;;;16.80;99.90;;;;;;4980274;28;20210;-74
2023/05/15 11:02:55;;;;;;;1.73;1.30;;;16.00;99.90;;;;;;4981279;28;20640;-73
2023/05/15 11:05:23;;;;;;;1.80;1.70;;;15.60;99.90;;;;;;4978689;28;20567;-72
2023/05/15 11:08:26;;;;;;;1.27;1.27;;;15.20;99.90;;;;;;4977049;28;20682;-72
2023/05/15 11:10:55;;;;;;;0.93;0.93;;;15.00;99.90;;;;;;4970680;28;20609;-73
2023/05/15 11:13:21;;;;;;;1.10;1.10;;;14.80;99.90;;;;;;4977217;28;20301;-73
2023/05/15 11:15:49;;;;;;;1.05;1.05;;;14.80;99.90;;;;;;4977047;28;20279;-73
2023/05/15 11:18:16;;;;;;;1.33;0.90;;;14.60;99.90;;;;;;4976999;28;20215;-73
2023/05/15 11:21:09;;;;;;;1.10;1.10;;;14.60;99.90;;;;;;4976951;28;20199;-72
2023/05/15 11:23:40;;;;;;;1.60;1.50;;;14.60;99.90;;;;;;4976865;28;20195;-72
2023/05/15 11:26:07;;;;;;;1.92;1.33;;;14.70;99.90;;;;;;4976441;28;20757;-71
2023/05/15 11:28:43;;;;;;;1.42;1.42;;;14.80;99.90;;;;;;4975518;28;20203;-71
2023/05/15 11:31:10;;;;;;;1.30;1.30;;;14.80;99.90;;;;;;4976756;28;20191;-71
2023/05/15 11:33:38;;;;;;;1.15;1.05;;;14.80;99.90;;;;;;4976903;28;20200;-71
2023/05/15 11:36:07;;;;;;;1.00;1.00;;;14.80;99.90;;;;;;4976472;28;20234;-71
2023/05/15 11:38:38;;;;;;;1.00;1.00;;;14.90;99.90;;;;;;4976636;28;20203;-71
2023/05/15 11:41:17;;;;;;;0.77;0.77;;;14.90;99.90;;;;;;4976667;28;20199;-72
2023/05/15 11:43:44;;;;;;;1.02;1.02;;;14.90;99.90;;;;;;4976999;28;20183;-72
2023/05/15 11:46:13;;;;;;;1.27;1.17;;;14.90;99.90;;;;;;4977293;28;20223;-72
2023/05/15 11:48:41;;;;;;;0.90;0.90;;;14.90;99.90;;;;;;4976581;28;20667;-71
2023/05/15 11:51:17;;;;;;;0.80;0.80;;;14.90;99.90;;;;;;4976526;28;20210;-71
2023/05/15 11:53:44;;;;;;;0.70;0.70;;;14.90;99.90;;;;;;4976186;28;20600;-71
2023/05/15 11:56:16;;;;;;;0.60;0.60;;;14.90;99.90;;;;;;4976096;28;20258;-74
2023/05/15 11:58:43;;;;;;;0.85;0.85;;;14.90;99.90;;;;;;4976308;28;20603;-71
2023/05/15 12:01:11;;;;;;;1.15;1.10;;;15.00;99.90;;;;;;4976209;28;20241;-70
2023/05/15 12:03:37;;;;;;;0.85;0.85;;;15.10;99.90;;;;;;4976067;28;20242;-71
2023/05/15 12:06:05;;;;;;;0.80;0.80;;;15.10;99.90;;;;;;4976038;28;20549;-71
2023/05/15 12:08:33;;;;;;;0.73;0.73;;;15.20;99.90;;;;;;4975822;28;20208;-71
2023/05/15 12:11:01;;;;;;;1.08;1.08;;;15.10;99.90;;;;;;4976119;28;20266;-71
2023/05/15 12:13:29;;;;;;;1.20;0.80;;;15.10;99.90;;;;;;4975660;28;20208;-71
2023/05/15 12:15:56;;;;;;;0.65;0.65;;;15.10;99.90;;;;;;4975877;28;20286;-71
2023/05/15 12:18:23;;;;;;;0.80;0.80;;;15.20;99.90;;;;;;4975804;28;20354;-71
2023/05/15 12:20:52;;;;;;;3.60;1.20;;;15.40;99.90;;;;;;4975840;28;20203;-71
2023/05/15 12:23:21;;;;;;;1.10;0.90;;;15.50;99.90;;;;;;4975888;28;20207;-72
2023/05/15 12:25:52;;;;;;;1.10;1.10;;;15.60;99.90;;;;;;4975890;28;20254;-73
2023/05/15 12:28:19;;;;;;;0.95;0.95;;;15.70;99.90;;;;;;4975686;28;20191;-73
2023/05/15 12:30:46;;;;;;;1.00;1.00;;;15.70;99.90;;;;;;4975848;28;20203;-73
2023/05/15 12:33:13;;;;;;;2.25;1.25;;;15.80;99.90;;;;;;4975864;28;20210;-72
2023/05/15 12:35:42;;;;;;;0.88;0.88;;;15.80;99.90;;;;;;4975596;28;20234;-73
2023/05/15 12:38:14;;;;;;;0.95;0.95;;;15.80;99.90;;;;;;4975794;28;20203;-72
2023/05/15 12:40:43;;;;;;;1.27;1.10;;;15.90;99.90;;;;;;4974876;28;20571;-71
2023/05/15 12:43:11;;;;;;;1.35;1.15;;;15.90;99.90;;;;;;4976345;28;20278;-71
2023/05/15 12:45:39;;;;;;;1.27;1.17;;;16.00;99.90;;;;;;4975449;28;20251;-72
2023/05/15 12:48:06;;;;;;;1.20;1.10;;;16.00;99.90;;;;;;4975465;28;20206;-72
2023/05/15 12:50:35;;;;;;;1.05;1.05;;;16.00;99.90;;;;;;4975388;28;20254;-71
2023/05/15 12:53:04;;;;;;;1.02;1.02;;;16.00;99.60;;;;;;4976274;28;20217;-71
2023/05/15 12:55:32;;;;;;;1.45;1.17;;;16.10;99.90;;;;;;4975627;28;20227;-72
2023/05/15 12:58:01;;;;;;;1.20;1.20;;;16.20;99.90;;;;;;4976808;28;20205;-74
2023/05/15 13:00:31;;;;;;;1.30;1.00;;;16.30;99.90;;;;;;4975813;28;20213;-73
2023/05/15 13:02:58;;;;;;;0.98;0.98;;;16.30;96.30;;;;;;4975609;28;20290;-73
2023/05/15 13:05:25;;;;;;;0.57;0.57;;;16.40;91.90;;;;;;4975624;28;20226;-73
2023/05/15 13:07:53;;;;;;;0.60;0.60;;;16.50;89.20;;;;;;4975359;28;20203;-71
2023/05/15 13:10:21;;;;;;;1.45;0.80;;;16.60;83.80;;;;;;4975111;28;20257;-71
2023/05/15 13:12:49;;;;;;;3.05;0.95;;;16.60;76.80;;;;;;4974948;28;20210;-72
2023/05/15 13:15:26;;;;;;;0.55;0.55;;;16.80;79.80;;;;;;4974637;28;20818;-73
2023/05/15 13:17:58;;;;;;;1.13;0.90;;;17.00;78.20;;;;;;4974611;28;20640;-71
2023/05/15 13:20:27;;;;;;;0.80;0.80;;;17.10;72.60;;;;;;4975094;28;20287;-71
2023/05/15 13:22:54;;;;;;;0.75;0.50;;;17.30;70.00;;;;;;4974593;28;20207;-72
2023/05/15 13:25:21;;;;;;;0.90;0.70;;;17.40;72.00;;;;;;4974869;28;20226;-71
2023/05/15 13:27:48;;;;;;;0.70;0.70;;;17.50;66.50;;;;;;4974559;28;20666;-72
2023/05/15 13:30:16;;;;;;;1.33;0.80;;;17.70;68.20;;;;;;4974858;28;20241;-72
2023/05/15 13:32:43;;;;;;;1.15;0.77;;;17.90;71.60;;;;;;4974723;28;20241;-72
2023/05/15 13:35:11;;;;;;;0.55;0.55;;;18.20;71.70;;;;;;4974222;28;20686;-72
2023/05/15 13:37:38;;;;;;;0.90;0.90;;;18.40;66.20;;;;;;4974660;28;20203;-72
2023/05/15 13:40:10;;;;;;;0.90;0.90;;;18.60;81.00;;;;;;4974302;28;20578;-72
2023/05/15 13:42:36;;;;;;;1.40;1.20;;;18.40;94.00;;;;;;4974919;28;20191;-72
2023/05/15 13:45:04;;;;;;;0.93;0.93;;;18.10;99.00;;;;;;4974695;28;20225;-72
2023/05/15 13:47:31;;;;;;;1.23;1.10;;;17.70;99.90;;;;;;4974775;28;20578;-72
2023/05/15 13:49:57;;;;;;;2.00;1.10;;;17.40;99.90;;;;;;4974626;28;20210;-73
2023/05/15 13:52:26;;;;;;;1.20;1.20;;;17.20;99.90;;;;;;4973735;28;20697;-72
2023/05/15 13:54:54;;;;;;;1.20;1.20;;;16.90;99.90;;;;;;4974717;28;20223;-72
2023/05/15 13:57:21;;;;;;;1.38;1.35;;;16.60;99.90;;;;;;4974476;28;20203;-72
2023/05/15 13:59:47;;;;;;;2.55;0.98;;;16.30;99.90;;;;;;4974617;28;20205;-72
2023/05/15 14:02:14;;;;;;;1.38;1.17;;;16.40;99.90;;;;;;4974593;28;20213;-72
2023/05/15 14:04:41;;;;;;;1.13;1.13;;;16.50;99.90;;;;;;4974592;28;20223;-73
2023/05/15 14:07:07;;;;;;;1.10;1.10;;;16.60;99.90;;;;;;4974807;28;20206;-73
2023/05/15 14:09:35;;;;;;;1.10;1.10;;;16.70;99.90;;;;;;4977175;28;20209;-73
2023/05/15 14:12:02;;;;;;;1.08;1.08;;;16.80;99.90;;;;;;4980080;28;20208;-73
2023/05/15 14:14:29;;;;;;;0.93;0.93;;;16.90;99.90;;;;;;4974669;28;20225;-73
2023/05/15 14:16:56;;;;;;;1.95;1.00;;;16.90;99.90;;;;;;4974090;28;20230;-73
2023/05/15 14:19:22;;;;;;;0.80;0.80;;;16.90;99.90;;;;;;4974593;28;20206;-73
2023/05/15 14:21:49;;;;;;;0.80;0.80;;;16.90;99.90;;;;;;4974382;28;20222;-73
2023/05/15 14:24:16;;;;;;;0.80;0.80;;;16.70;99.90;;;;;;4975199;28;20227;-73
2023/05/15 14:26:44;;;;;;;0.80;0.80;;;16.50;99.90;;;;;;4974412;28;20228;-74
2023/05/15 14:29:11;;;;;;;0.73;0.73;;;16.50;99.90;;;;;;4974338;28;20210;-74
2023/05/15 14:31:38;;;;;;;0.85;0.85;;;16.30;99.90;;;;;;4974361;28;20202;-74
2023/05/15 14:34:05;;;;;;;1.08;1.08;;;16.20;99.90;;;;;;4974193;28;20234;-74
2023/05/15 14:36:32;;;;;;;0.95;0.95;;;16.10;99.90;;;;;;4974134;28;20223;-74
2023/05/15 14:38:59;;;;;;;1.02;1.02;;;16.10;99.90;;;;;;4974247;28;20258;-74
2023/05/15 14:41:25;;;;;;;1.40;1.40;;;16.00;99.90;;;;;;4974063;28;20213;-74
2023/05/15 14:43:54;;;;;;;1.10;1.10;;;15.90;99.90;;;;;;4973877;28;20595;-74
2023/05/15 14:46:20;;;;;;;1.90;1.80;;;15.80;99.90;;;;;;4974189;28;20283;-74
2023/05/15 14:48:47;;;;;;;2.13;2.03;;;15.80;99.90;;;;;;4974091;28;20207;-74
2023/05/15 14:51:14;;;;;;;1.50;1.48;;;15.80;99.90;;;;;;4974218;28;20199;-74
2023/05/15 14:53:41;;;;;;;1.48;1.48;;;15.70;99.90;;;;;;4973937;28;20230;-74
2023/05/15 14:56:08;;;;;;;1.30;1.20;;;15.60;99.90;;;;;;4973851;28;20282;-74
2023/05/15 14:58:35;;;;;;;1.10;1.10;;;15.60;99.90;;;;;;4973733;28;20203;-74
2023/05/15 15:01:04;;;;;;;1.13;1.13;;;15.60;99.90;;;;;;4973999;28;20235;-74
2023/05/15 15:03:31;;;;;;;1.20;1.20;;;15.50;99.90;;;;;;4975677;28;20203;-74
2023/05/15 15:05:57;;;;;;;1.17;1.17;;;15.40;99.90;;;;;;4977424;28;20219;-74
2023/05/15 15:08:24;;;;;;;0.95;0.85;;;15.30;99.90;;;;;;4977369;28;20215;-74
2023/05/15 15:10:51;;;;;;;1.92;1.10;;;15.20;99.90;;;;;;4977415;28;20203;-74
2023/05/15 15:13:18;;;;;;;1.00;1.00;;;15.20;99.90;;;;;;4977352;28;20259;-74
2023/05/15 15:15:45;;;;;;;1.20;1.20;;;15.00;99.90;;;;;;4977362;28;20227;-75
2023/05/15 15:18:13;;;;;;;0.90;0.90;;;14.80;99.90;;;;;;4977088;28;20211;-74
2023/05/15 15:20:41;;;;;;;1.10;1.10;;;14.70;99.90;;;;;;4977104;28;20199;-74
2023/05/15 15:23:08;;;;;;;0.88;0.88;;;14.60;99.90;;;;;;4977195;28;20231;-74
2023/05/15 15:25:35;;;;;;;0.90;0.90;;;14.50;99.90;;;;;;4977021;28;20226;-73
2023/05/15 15:28:03;;;;;;;1.42;1.38;;;14.50;99.90;;;;;;4976848;28;20290;-73
2023/05/15 15:30:29;;;;;;;1.10;1.10;;;14.40;99.90;;;;;;4976650;28;20203;-74
2023/05/15 15:32:56;;;;;;;0.85;0.85;;;14.30;99.90;;;;;;4976686;28;20259;-74
2023/05/15 15:35:24;;;;;;;1.00;0.98;;;14.10;99.90;;;;;;4976458;28;20698;-74
2023/05/15 15:37:51;;;;;;;0.95;0.95;;;14.10;99.90;;;;;;4976887;28;20203;-73
2023/05/15 15:40:19;;;;;;;1.23;1.23;;;14.00;99.90;;;;;;4976938;28;20214;-73
2023/05/15 15:42:45;;;;;;;1.40;1.40;;;14.00;99.90;;;;;;4977398;28;20207;-73
2023/05/15 15:45:12;;;;;;;1.35;1.35;;;14.10;99.90;;;;;;4976606;28;20234;-73
2023/05/15 15:47:39;;;;;;;1.50;1.40;;;14.20;99.90;;;;;;4976875;28;20210;-74
2023/05/15 15:50:06;;;;;;;1.63;1.50;;;14.30;99.90;;;;;;4976674;28;20437;-74
2023/05/15 15:52:34;;;;;;;1.30;1.30;;;14.40;99.90;;;;;;4976622;28;20200;-74
2023/05/15 15:55:01;;;;;;;1.45;1.35;;;14.50;99.90;;;;;;4976591;28;20223;-74
2023/05/15 15:57:30;;;;;;;1.30;1.30;;;14.60;99.90;;;;;;4976600;28;20305;-75
2023/05/15 15:59:57;;;;;;;1.10;1.05;;;14.60;99.90;;;;;;4976463;28;20254;-74
2023/05/15 16:02:23;;;;;;;1.17;1.17;;;14.80;99.90;;;;;;4976445;28;20210;-74
2023/05/15 16:04:50;;;;;;;1.27;1.27;;;14.80;99.90;;;;;;4976067;28;20691;-74
2023/05/15 16:07:17;;;;;;;1.23;1.23;;;14.90;99.90;;;;;;4976440;28;20227;-73
2023/05/15 16:09:45;;;;;;;1.08;1.08;;;15.10;99.90;;;;;;4976428;28;20207;-73
2023/05/15 16:12:11;;;;;;;1.02;1.02;;;15.10;99.90;;;;;;4976217;28;20187;-73
2023/05/15 16:14:38;;;;;;;1.02;1.02;;;15.10;99.90;;;;;;4975335;28;20234;-73
2023/05/15 16:17:05;;;;;;;0.90;0.90;;;15.10;99.90;;;;;;4975844;28;20237;-73
2023/05/15 16:19:31;;;;;;;1.15;1.15;;;15.10;99.90;;;;;;4975729;28;20674;-73
2023/05/15 16:21:58;;;;;;;0.90;0.90;;;15.20;99.90;;;;;;4976008;28;20260;-73
2023/05/15 16:24:25;;;;;;;0.90;0.90;;;15.20;99.90;;;;;;4976094;28;20228;-73
2023/05/15 16:26:54;;;;;;;0.80;0.80;;;15.20;99.90;;;;;;4976006;28;20211;-73
2023/05/15 16:29:20;;;;;;;0.70;0.70;;;15.30;99.90;;;;;;4975997;28;20203;-72
2023/05/15 16:31:47;;;;;;;0.80;0.80;;;15.30;99.90;;;;;;4976143;28;20207;-72
2023/05/15 16:34:14;;;;;;;0.70;0.70;;;15.20;99.90;;;;;;4975818;28;20567;-73
2023/05/15 16:36:41;;;;;;;0.73;0.70;;;15.20;99.90;;;;;;4975798;28;20239;-73
2023/05/15 16:39:08;;;;;;;0.93;0.93;;;15.10;99.90;;;;;;4975733;28;20199;-73
2023/05/15 16:41:34;;;;;;;0.80;0.80;;;15.00;99.90;;;;;;4975431;28;20667;-73
2023/05/15 16:44:04;;;;;;;0.73;0.73;;;14.90;99.90;;;;;;4975703;28;20208;-74
2023/05/15 16:46:31;;;;;;;1.23;1.10;;;14.80;99.90;;;;;;4975620;28;20188;-73
2023/05/15 16:48:58;;;;;;;0.80;0.80;;;14.70;99.90;;;;;;4975786;28;20204;-74
2023/05/15 16:51:25;;;;;;;0.90;0.80;;;14.60;99.90;;;;;;4975710;28;20589;-75
2023/05/15 16:53:52;;;;;;;0.70;0.70;;;14.50;99.90;;;;;;4976377;28;20195;-75
2023/05/15 16:56:19;;;;;;;0.63;0.63;;;14.40;99.90;;;;;;4975575;28;20228;-76
2023/05/15 16:58:46;;;;;;;0.88;0.88;;;14.30;99.90;;;;;;4976168;28;20183;-75
2023/05/15 17:01:14;;;;;;;0.68;0.68;;;14.30;99.90;;;;;;4975526;28;20218;-75
2023/05/15 17:03:41;;;;;;;0.60;0.60;;;14.20;99.90;;;;;;4975058;28;20207;-76
2023/05/15 17:06:07;;;;;;;0.73;0.73;;;14.20;99.90;;;;;;4975319;28;20221;-76
2023/05/15 17:08:34;;;;;;;0.70;0.70;;;14.20;99.90;;;;;;4975514;28;20203;-75
2023/05/15 17:11:02;;;;;;;1.02;1.02;;;14.10;99.90;;;;;;4975324;28;20207;-76
2023/05/15 17:13:28;;;;;;;0.95;0.95;;;14.00;99.90;;;;;;4975200;28;20650;-75
2023/05/15 17:15:55;;;;;;;1.20;1.10;;;14.00;99.90;;;;;;4975240;28;20227;-76
2023/05/15 17:18:23;;;;;;;1.20;1.20;;;13.90;99.90;;;;;;4975652;28;20218;-76
2023/05/15 17:20:50;;;;;;;0.95;0.95;;;13.90;99.90;;;;;;4975883;28;20187;-76
2023/05/15 17:23:17;;;;;;;0.90;0.90;;;13.80;99.90;;;;;;4976639;28;20306;-74
2023/05/15 17:25:43;;;;;;;0.82;0.82;;;13.70;99.90;;;;;;4975773;28;20234;-75
2023/05/15 17:28:10;;;;;;;1.10;1.10;;;13.70;99.90;;;;;;4975440;28;20210;-75
2023/05/15 17:30:37;;;;;;;0.85;0.85;;;13.60;99.90;;;;;;4975234;28;20204;-74
2023/05/15 17:33:03;;;;;;;0.88;0.88;;;13.50;99.90;;;;;;4976911;28;20266;-74
2023/05/15 17:35:32;;;;;;;0.80;0.80;;;13.40;99.90;;;;;;4976210;28;20234;-75
2023/05/15 17:37:58;;;;;;;1.02;1.02;;;13.40;99.90;;;;;;4976198;28;20211;-75
2023/05/15 17:40:25;;;;;;;0.80;0.80;;;13.30;99.90;;;;;;4977669;28;20195;-74
2023/05/15 17:42:51;;;;;;;0.80;0.80;;;13.20;99.90;;;;;;4974377;28;20203;-74
2023/05/15 17:45:18;;;;;;;0.90;0.90;;;13.20;99.90;;;;;;4974309;28;20714;-74
2023/05/15 17:47:45;;;;;;;0.80;0.80;;;13.10;99.90;;;;;;4974902;28;20215;-74
2023/05/15 17:50:12;;;;;;;0.77;0.77;;;13.10;99.90;;;;;;4974847;28;20211;-75
2023/05/15 17:52:40;;;;;;;1.05;1.05;;;13.00;99.90;;;;;;4977652;28;20203;-74
2023/05/15 17:55:09;;;;;;;0.70;0.70;;;12.90;99.90;;;;;;4976733;28;20223;-74
2023/05/15 17:57:36;;;;;;;0.90;0.90;;;12.90;99.90;;;;;;4975837;28;20323;-75
2023/05/15 18:00:05;;;;;;;0.80;0.80;;;12.70;99.90;;;;;;4974963;28;20592;-74
2023/05/15 18:02:32;;;;;;;0.70;0.70;;;12.60;99.90;;;;;;4974820;28;20208;-75
2023/05/15 18:04:59;;;;;;;0.90;0.90;;;12.60;99.90;;;;;;4974594;28;20223;-75
2023/05/15 18:07:25;;;;;;;1.00;1.00;;;12.40;99.90;;;;;;4974988;28;20203;-74
2023/05/15 18:09:53;;;;;;;0.90;0.90;;;12.30;99.90;;;;;;4975727;28;20206;-76
2023/05/15 18:12:21;;;;;;;0.90;0.90;;;12.30;99.90;;;;;;4975107;28;20210;-73
2023/05/15 18:14:48;;;;;;;1.00;1.00;;;12.10;99.90;;;;;;4975592;28;20231;-75
2023/05/15 18:17:15;;;;;;;1.02;1.02;;;12.00;99.90;;;;;;4981530;28;20230;-73
2023/05/15 18:20:04;;;;;;;0.90;0.90;;;11.90;99.90;;;;;;4981788;28;20618;-73
2023/05/15 18:22:33;;;;;;;0.88;0.88;;;11.80;99.90;;;;;;4995254;23;20272;-74
2023/05/15 18:25:02;;;;;;;0.90;0.90;;;11.70;99.90;;;;;;4980175;28;20215;-75
2023/05/15 18:27:31;;;;;;;0.82;0.82;;;11.60;99.90;;;;;;4978209;28;20200;-73
2023/05/15 18:29:57;;;;;;;0.80;0.80;;;11.50;99.90;;;;;;4977705;28;20184;-74
2023/05/15 18:32:24;;;;;;;0.90;0.90;;;11.40;99.90;;;;;;4976107;28;20223;-74
2023/05/15 18:34:51;;;;;;;1.00;1.00;;;11.40;99.90;;;;;;4975036;28;20203;-74
2023/05/15 18:37:18;;;;;;;0.90;0.90;;;11.20;99.90;;;;;;4974936;28;20215;-74
2023/05/15 18:39:46;;;;;;;0.93;0.93;;;11.80;99.90;;;;;;4978399;28;20230;-74
2023/05/15 18:42:18;;;;;;;1.27;1.20;;;11.00;99.90;;;;;;4978162;28;20230;-74
2023/05/15 18:44:44;;;;;;;1.73;1.52;;;11.00;99.90;;;;;;4978674;28;20184;-74
2023/05/15 18:47:11;;;;;;;0.90;0.90;;;11.00;99.90;;;;;;4977608;28;20561;-74
2023/05/15 18:49:38;;;;;;;1.10;1.10;;;11.10;99.90;;;;;;4978077;28;20266;-74
2023/05/15 18:52:06;;;;;;;1.10;1.10;;;10.80;99.90;;;;;;4979782;28;20259;-73
2023/05/15 18:54:33;;;;;;;1.10;1.10;;;10.70;99.90;;;;;;4980473;28;20200;-73
2023/05/15 18:57:00;;;;;;;1.13;1.10;;;10.60;99.90;;;;;;4977775;28;20215;-74
2023/05/15 18:59:28;;;;;;;1.00;1.00;;;10.60;99.90;;;;;;4977517;28;20671;-72
2023/05/15 19:01:55;;;;;;;1.50;1.50;;;10.40;99.90;;;;;;4977984;28;20223;-73
2023/05/15 19:04:22;;;;;;;1.13;1.13;;;10.40;99.90;;;;;;4977746;28;20242;-72
2023/05/15 19:06:49;;;;;;;1.30;1.30;;;10.30;99.90;;;;;;4979461;28;20278;-73
2023/05/15 19:09:16;;;;;;;1.00;1.00;;;10.20;99.90;;;;;;4977423;28;20274;-73
2023/05/15 19:11:44;;;;;;;1.10;1.10;;;10.10;99.90;;;;;;4977039;28;20706;-73
2023/05/15 19:14:14;;;;;;;1.52;1.52;;;10.10;99.90;;;;;;4977356;28;20266;-74
2023/05/15 19:16:42;;;;;;;1.30;1.30;;;10.00;99.90;;;;;;4977263;28;20208;-76
2023/05/15 19:19:09;;;;;;;1.58;1.48;;;9.90;99.90;;;;;;4977458;28;20233;-76
2023/05/15 19:21:36;;;;;;;1.30;1.30;;;9.90;99.90;;;;;;4977114;28;20219;-75
2023/05/15 19:24:03;;;;;;;1.20;1.20;;;9.80;99.90;;;;;;4977048;28;20548;-75
2023/05/15 19:26:29;;;;;;;1.40;1.40;;;9.80;99.90;;;;;;4977544;28;20617;-73
2023/05/15 19:28:56;;;;;;;1.30;1.30;;;9.80;99.90;;;;;;4977145;28;20199;-73
2023/05/15 19:31:23;;;;;;;1.60;1.60;;;9.80;99.90;;;;;;4977111;28;20638;-73
2023/05/15 19:33:51;;;;;;;1.27;1.27;;;9.80;99.90;;;;;;4977089;28;20203;-72
2023/05/15 19:36:18;;;;;;;1.73;1.70;;;9.90;99.90;;;;;;4976790;28;20689;-72
2023/05/15 19:38:44;;;;;;;1.65;1.55;;;9.90;99.90;;;;;;4976944;28;20314;-73
2023/05/15 19:41:11;;;;;;;1.58;1.52;;;9.90;99.90;;;;;;4976949;28;20207;-72
2023/05/15 19:43:38;;;;;;;1.60;1.60;;;10.00;99.90;;;;;;4976656;28;20574;-72
2023/05/15 19:46:05;;;;;;;1.52;1.52;;;10.00;99.90;;;;;;4976719;28;20578;-72
2023/05/15 19:48:32;;;;;;;1.40;1.40;;;10.10;99.90;;;;;;4976758;28;20206;-72
2023/05/15 19:51:00;;;;;;;1.80;1.80;;;10.10;99.90;;;;;;4975514;28;20659;-72
2023/05/15 19:53:27;;;;;;;2.05;1.95;;;10.10;99.90;;;;;;4976638;28;20223;-72
2023/05/15 19:55:53;;;;;;;2.05;1.95;;;10.10;99.90;;;;;;4976739;28;20207;-72
2023/05/15 19:58:20;;;;;;;1.80;1.70;;;10.10;99.90;;;;;;4976705;28;20219;-71
2023/05/15 20:00:47;;;;;;;1.30;1.30;;;10.20;99.90;;;;;;4977136;28;20255;-71
2023/05/15 20:03:13;;;;;;;1.20;1.20;;;10.20;99.90;;;;;;4976851;28;20306;-70
2023/05/15 20:05:40;;;;;;;1.40;1.38;;;10.30;99.90;;;;;;4976557;28;20207;-70
2023/05/15 20:08:09;;;;;;;1.40;1.30;;;10.50;99.90;;;;;;4976589;28;20203;-70
2023/05/15 20:10:35;;;;;;;1.10;1.10;;;10.50;99.90;;;;;;4976358;28;20230;-70
2023/05/15 20:13:02;;;;;;;2.40;1.50;;;10.40;99.90;;;;;;4976311;28;20223;-70
2023/05/15 20:15:30;;;;;;;1.40;1.40;;;10.40;99.90;;;;;;4976697;28;20204;-70
2023/05/15 20:17:57;;;;;;;1.23;1.23;;;10.40;99.90;;;;;;4976242;28;20223;-70
2023/05/15 20:20:24;;;;;;;1.33;1.13;;;10.30;99.90;;;;;;4975986;28;20678;-70
2023/05/15 20:22:50;;;;;;;1.50;1.50;;;10.30;99.90;;;;;;4975802;28;20671;-70
2023/05/15 20:25:18;;;;;;;1.35;1.35;;;10.30;99.90;;;;;;4976916;28;20207;-70
2023/05/15 20:27:45;;;;;;;1.50;1.50;;;10.20;99.90;;;;;;4976269;28;20203;-69
2023/05/15 20:30:12;;;;;;;1.50;1.40;;;10.20;99.90;;;;;;4975833;28;20259;-73
2023/05/15 20:32:39;;;;;;;1.40;1.40;;;10.20;99.90;;;;;;4976152;28;20231;-72
2023/05/15 20:35:06;;;;;;;1.30;1.30;;;10.20;99.90;;;;;;4976027;28;20207;-73
2023/05/15 20:37:33;;;;;;;1.42;1.38;;;10.10;99.90;;;;;;4976839;28;20230;-73
2023/05/15 20:40:00;;;;;;;1.35;1.35;;;10.10;99.90;;;;;;4975729;28;20207;-73
2023/05/15 20:42:28;;;;;;;1.65;1.65;;;10.00;99.90;;;;;;4975488;28;20227;-73
2023/05/15 20:44:55;;;;;;;1.40;1.30;;;10.00;99.90;;;;;;4975622;28;20597;-74